createdAt,value
2022-11-22T00:00:31.211Z,11.98
2022-11-22T00:02:58.457Z,11.33
2022-11-22T00:05:25.907Z,11.77
2022-11-22T00:07:53.061Z,11.77
2022-11-22T00:10:20.229Z,10.85
2022-11-22T00:12:47.269Z,12.35
2022-11-22T00:15:14.350Z,11.53
2022-11-22T00:17:41.378Z,11.40
2022-11-22T00:20:10.637Z,9.77
2022-11-22T00:22:44.019Z,12.68
2022-11-22T00:25:12.503Z,11.65
2022-11-22T00:27:40.169Z,11.73
2022-11-22T00:30:08.013Z,14.25
2022-11-22T00:32:35.147Z,16.92
2022-11-22T00:35:02.717Z,12.18
2022-11-22T00:37:29.804Z,10.52
2022-11-22T00:39:56.909Z,12.53
2022-11-22T00:42:23.995Z,13.00
2022-11-22T00:44:51.112Z,11.77
2022-11-22T00:47:18.161Z,12.35
2022-11-22T00:49:45.206Z,14.00
2022-11-22T00:52:13.395Z,13.87
2022-11-22T00:54:40.760Z,9.50
2022-11-22T00:57:07.818Z,11.48
2022-11-22T00:59:34.963Z,12.23
2022-11-22T01:02:02.086Z,13.88
2022-11-22T01:04:29.620Z,10.80
2022-11-22T01:06:57.190Z,13.18
2022-11-22T01:09:25.214Z,11.82
2022-11-22T01:11:53.087Z,16.48
2022-11-22T01:14:20.448Z,12.13
2022-11-22T01:16:48.291Z,11.57
2022-11-22T01:19:15.554Z,12.05
2022-11-22T01:21:42.631Z,13.73
2022-11-22T01:24:10.090Z,9.30
2022-11-22T01:26:37.476Z,10.93
2022-11-22T01:29:05.017Z,9.63
2022-11-22T01:31:32.363Z,16.17
2022-11-22T01:33:59.678Z,12.43
2022-11-22T01:36:27.721Z,12.73
2022-11-22T01:38:55.250Z,6.03
2022-11-22T01:41:22.654Z,6.93
2022-11-22T01:43:49.864Z,8.80
2022-11-22T01:46:29.009Z,8.43
2022-11-22T01:49:01.964Z,6.55
2022-11-22T01:51:44.517Z,4.15
2022-11-22T01:54:14.168Z,4.23
2022-11-22T01:56:42.763Z,4.97
2022-11-22T01:59:17.236Z,5.75
2022-11-22T02:01:44.522Z,5.78
2022-11-22T02:04:14.444Z,7.22
2022-11-22T02:07:15.669Z,7.27
2022-11-22T02:09:43.468Z,2.97
2022-11-22T02:12:12.187Z,4.22
2022-11-22T02:14:40.419Z,5.47
2022-11-22T02:17:07.856Z,4.95
2022-11-22T02:19:44.242Z,7.90
2022-11-22T02:22:34.186Z,7.70
2022-11-22T02:25:32.247Z,8.38
2022-11-22T02:27:59.322Z,7.13
2022-11-22T02:30:26.463Z,6.88
2022-11-22T02:32:53.599Z,7.47
2022-11-22T02:35:26.135Z,7.10
2022-11-22T02:38:00.235Z,8.35
2022-11-22T02:40:29.940Z,5.38
2022-11-22T02:43:01.938Z,5.57
2022-11-22T02:45:29.532Z,6.33
2022-11-22T02:48:12.712Z,5.50
2022-11-22T02:50:40.353Z,7.15
2022-11-22T02:53:08.076Z,5.80
2022-11-22T02:55:35.494Z,6.60
2022-11-22T02:58:03.118Z,7.53
2022-11-22T03:00:30.423Z,6.60
2022-11-22T03:02:57.503Z,4.15
2022-11-22T03:05:24.639Z,7.90
2022-11-22T03:07:51.720Z,5.78
2022-11-22T03:10:18.883Z,5.93
2022-11-22T03:12:46.001Z,6.90
2022-11-22T03:15:13.130Z,6.38
2022-11-22T03:17:40.161Z,5.32
2022-11-22T03:20:07.949Z,8.52
2022-11-22T03:22:35.220Z,5.63
2022-11-22T03:25:02.292Z,6.00
2022-11-22T03:27:29.519Z,4.68
2022-11-22T03:29:56.658Z,5.03
2022-11-22T03:32:23.767Z,6.32
2022-11-22T03:34:50.846Z,5.07
2022-11-22T03:37:17.920Z,8.40
2022-11-22T03:39:45.182Z,4.95
2022-11-22T03:42:13.655Z,6.93
2022-11-22T03:44:43.854Z,5.68
2022-11-22T03:47:10.923Z,6.37
2022-11-22T03:49:37.957Z,5.45
2022-11-22T03:52:05.533Z,5.95
2022-11-22T03:54:32.645Z,3.58
2022-11-22T03:57:00.266Z,6.15
2022-11-22T03:59:28.176Z,7.33
2022-11-22T04:01:55.734Z,3.05
2022-11-22T04:04:23.016Z,6.50
2022-11-22T04:06:50.127Z,4.75
2022-11-22T04:09:17.203Z,5.20
2022-11-22T04:11:44.282Z,6.30
2022-11-22T04:14:31.016Z,11.20
2022-11-22T04:16:58.107Z,4.38
2022-11-22T04:19:25.189Z,5.70
2022-11-22T04:21:52.249Z,5.75
2022-11-22T04:24:37.962Z,4.53
2022-11-22T04:27:05.051Z,6.00
2022-11-22T04:29:32.377Z,5.80
2022-11-22T04:32:18.092Z,4.93
2022-11-22T04:34:45.153Z,6.63
2022-11-22T04:37:12.215Z,5.70
2022-11-22T04:39:39.279Z,5.90
2022-11-22T04:42:24.613Z,4.43
2022-11-22T04:44:51.700Z,5.65
2022-11-22T04:47:37.988Z,6.57
2022-11-22T04:50:26.277Z,9.07
2022-11-22T04:52:54.943Z,6.70
2022-11-22T04:55:22.247Z,6.07
2022-11-22T04:57:52.100Z,6.07
2022-11-22T05:00:23.192Z,5.53
2022-11-22T05:02:50.234Z,5.80
2022-11-22T05:05:17.398Z,3.50
2022-11-22T05:07:44.597Z,7.50
2022-11-22T05:10:11.974Z,7.20
2022-11-22T05:12:40.936Z,4.72
2022-11-22T05:15:09.825Z,7.47
2022-11-22T05:17:38.112Z,6.65
2022-11-22T05:20:06.562Z,6.10
2022-11-22T05:22:52.290Z,6.97
2022-11-22T05:25:24.138Z,6.45
2022-11-22T05:27:54.187Z,6.30
2022-11-22T05:30:21.454Z,8.05
2022-11-22T05:32:48.497Z,8.27
2022-11-22T05:35:15.601Z,9.30
2022-11-22T05:37:42.723Z,6.78
2022-11-22T05:40:10.587Z,8.80
2022-11-22T05:42:37.747Z,7.68
2022-11-22T05:45:05.268Z,9.90
2022-11-22T05:47:36.269Z,6.25
2022-11-22T05:50:04.497Z,8.13
2022-11-22T05:52:31.577Z,6.23
2022-11-22T05:54:58.651Z,7.40
2022-11-22T05:57:25.858Z,5.85
2022-11-22T05:59:53.143Z,8.02
2022-11-22T06:02:20.918Z,10.07
2022-11-22T06:04:48.442Z,8.73
2022-11-22T06:07:15.687Z,5.18
2022-11-22T06:09:42.810Z,8.25
2022-11-22T06:12:10.257Z,5.15
2022-11-22T06:14:42.964Z,7.35
2022-11-22T06:17:10.536Z,6.27
2022-11-22T06:19:37.672Z,7.90
2022-11-22T06:22:04.747Z,7.88
2022-11-22T06:24:31.840Z,6.82
2022-11-22T06:26:58.877Z,7.15
2022-11-22T06:29:26.063Z,8.23
2022-11-22T06:31:53.614Z,7.15
2022-11-22T06:34:20.701Z,8.88
2022-11-22T06:36:47.745Z,10.43
2022-11-22T06:39:14.804Z,8.35
2022-11-22T06:41:41.874Z,7.67
2022-11-22T06:44:09.755Z,9.00
2022-11-22T06:46:37.528Z,7.97
2022-11-22T06:49:04.856Z,11.48
2022-11-22T06:51:32.584Z,8.23
2022-11-22T06:54:00.082Z,11.37
2022-11-22T06:56:29.987Z,9.68
2022-11-22T06:58:57.511Z,10.52
2022-11-22T07:01:27.747Z,10.25
2022-11-22T07:03:58.144Z,10.38
2022-11-22T07:06:27.457Z,11.00
2022-11-22T07:08:54.769Z,6.80
2022-11-22T07:11:24.189Z,10.82
2022-11-22T07:13:51.578Z,11.77
2022-11-22T07:16:20.650Z,14.00
2022-11-22T07:18:48.708Z,13.83
2022-11-22T07:21:20.814Z,15.13
2022-11-22T07:23:50.505Z,14.40
2022-11-22T07:26:19.443Z,13.07
2022-11-22T07:28:47.019Z,14.13
2022-11-22T07:31:15.913Z,17.40
2022-11-22T07:33:43.823Z,15.50
2022-11-22T07:36:13.165Z,10.05
2022-11-22T07:38:40.260Z,17.35
2022-11-22T07:41:08.285Z,12.32
2022-11-22T07:43:38.460Z,15.50
2022-11-22T07:46:17.383Z,12.13
2022-11-22T07:48:44.608Z,14.02
2022-11-22T07:51:11.715Z,12.18
2022-11-22T07:53:38.905Z,13.57
2022-11-22T07:56:07.017Z,12.93
2022-11-22T07:58:35.027Z,7.32
2022-11-22T08:01:09.580Z,13.70
2022-11-22T08:03:37.823Z,14.27
2022-11-22T08:06:07.133Z,11.98
2022-11-22T08:08:34.991Z,12.17
2022-11-22T08:11:02.076Z,13.82
2022-11-22T08:13:29.549Z,15.57
2022-11-22T08:16:05.445Z,14.13
2022-11-22T08:18:34.610Z,12.13
2022-11-22T08:21:12.769Z,11.73
2022-11-22T08:23:40.949Z,15.80
2022-11-22T08:26:09.803Z,13.30
2022-11-22T08:28:36.978Z,9.48
2022-11-22T08:31:08.522Z,9.15
2022-11-22T08:33:35.692Z,10.27
2022-11-22T08:36:02.764Z,12.82
2022-11-22T08:38:30.083Z,13.85
2022-11-22T08:40:57.351Z,13.50
2022-11-22T08:43:24.418Z,12.60
2022-11-22T08:45:57.291Z,12.50
2022-11-22T08:48:26.128Z,12.80
2022-11-22T08:50:55.047Z,13.48
2022-11-22T08:53:22.445Z,11.90
2022-11-22T08:55:49.622Z,12.50
2022-11-22T08:58:16.768Z,12.73
2022-11-22T09:00:44.310Z,10.43
2022-11-22T09:03:11.453Z,12.60
2022-11-22T09:08:25.637Z,9.55
2022-11-22T09:10:52.868Z,11.63
2022-11-22T09:13:19.939Z,9.98
2022-11-22T09:15:47.009Z,10.68
2022-11-22T09:18:14.046Z,12.85
2022-11-22T09:20:41.099Z,12.35
2022-11-22T09:23:08.161Z,11.10
2022-11-22T09:25:35.310Z,10.73
2022-11-22T09:28:03.266Z,15.35
2022-11-22T09:30:30.880Z,12.85
2022-11-22T09:32:58.169Z,12.43
2022-11-22T09:35:25.292Z,12.37
2022-11-22T09:37:52.367Z,11.30
2022-11-22T09:40:19.560Z,11.13
2022-11-22T09:42:57.989Z,12.45
2022-11-22T09:45:38.746Z,13.82
2022-11-22T09:48:12.295Z,10.30
2022-11-22T09:50:58.145Z,14.48
2022-11-22T09:53:30.654Z,14.15
2022-11-22T09:55:59.834Z,11.88
2022-11-22T09:58:47.610Z,13.40
2022-11-22T10:01:18.598Z,12.00
2022-11-22T10:03:55.518Z,12.07
2022-11-22T10:06:35.012Z,13.35
2022-11-22T10:09:17.038Z,10.57
2022-11-22T10:12:05.580Z,12.65
2022-11-22T10:14:55.951Z,12.97
2022-11-22T10:17:47.473Z,9.18
2022-11-22T10:20:18.603Z,10.80
2022-11-22T10:22:46.054Z,10.05
2022-11-22T10:25:17.535Z,11.48
2022-11-22T10:27:48.841Z,13.77
2022-11-22T10:30:18.297Z,14.18
2022-11-22T10:33:06.812Z,13.80
2022-11-22T10:36:19.321Z,10.02
2022-11-22T10:39:02.162Z,13.25
2022-11-22T10:41:50.167Z,12.10
2022-11-22T10:44:34.383Z,15.43
2022-11-22T10:47:22.983Z,14.27
2022-11-22T10:50:01.388Z,12.48
2022-11-22T10:52:54.272Z,13.73
2022-11-22T10:55:46.121Z,13.87
2022-11-22T10:58:31.208Z,11.55
2022-11-22T11:01:20.577Z,11.30
2022-11-22T11:03:49.046Z,10.68
2022-11-22T11:06:43.734Z,11.60
2022-11-22T11:12:38.636Z,9.75
2022-11-22T11:15:14.861Z,10.38
2022-11-22T11:17:42.233Z,12.65
2022-11-22T11:20:23.008Z,11.70
2022-11-22T11:25:43.281Z,16.45
2022-11-22T11:28:17.731Z,10.13
2022-11-22T11:30:49.690Z,11.20
2022-11-22T11:33:26.170Z,12.00
2022-11-22T11:36:16.349Z,10.97
2022-11-22T11:38:43.313Z,9.95
2022-11-22T11:41:17.841Z,12.25
2022-11-22T11:43:45.513Z,11.98
2022-11-22T11:46:23.831Z,10.23
2022-11-22T11:48:52.873Z,9.53
2022-11-22T11:51:24.832Z,11.70
2022-11-22T11:53:56.457Z,9.57
2022-11-22T11:56:35.607Z,9.43
2022-11-22T11:59:11.318Z,9.60
2022-11-22T12:01:46.799Z,10.33
2022-11-22T12:04:21.476Z,8.50
2022-11-22T12:07:02.808Z,9.38
2022-11-22T12:09:36.066Z,8.85
2022-11-22T12:12:11.573Z,10.88
2022-11-22T12:15:09.150Z,9.13
2022-11-22T12:17:30.665Z,16.83
2022-11-22T12:20:11.960Z,9.85
2022-11-22T12:23:02.653Z,10.52
2022-11-22T12:25:35.959Z,9.15
2022-11-22T12:28:12.842Z,9.73
2022-11-22T12:30:41.463Z,13.15
2022-11-22T12:33:20.060Z,11.68
2022-11-22T12:35:48.811Z,12.88
2022-11-22T12:38:21.604Z,12.73
2022-11-22T12:40:51.828Z,12.17
2022-11-22T12:43:27.562Z,16.83
2022-11-22T12:46:05.993Z,11.15
2022-11-22T12:48:48.400Z,10.25
2022-11-22T12:51:30.957Z,12.90
2022-11-22T12:54:02.099Z,13.17
2022-11-22T12:56:46.987Z,13.52
2022-11-22T13:00:00.004Z,12.88
2022-11-22T13:02:32.423Z,11.65
2022-11-22T13:05:10.600Z,17.27
2022-11-22T13:08:08.998Z,13.07
2022-11-22T13:11:19.730Z,12.10
2022-11-22T13:13:49.921Z,15.50
2022-11-22T13:16:17.092Z,11.15
2022-11-22T13:18:48.313Z,15.55
2022-11-22T13:21:53.119Z,11.23
2022-11-22T13:24:30.858Z,15.55
2022-11-22T13:27:15.349Z,10.88
2022-11-22T13:29:43.508Z,12.55
2022-11-22T13:32:13.363Z,12.48
2022-11-22T13:34:42.569Z,11.90
2022-11-22T13:37:15.414Z,11.80
2022-11-22T13:39:46.211Z,12.10
2022-11-22T13:42:21.791Z,16.00
2022-11-22T13:44:56.255Z,11.13
2022-11-22T13:47:23.202Z,13.30
2022-11-22T13:49:51.396Z,10.40
2022-11-22T13:52:19.572Z,12.00
2022-11-22T13:54:46.684Z,11.38
2022-11-22T13:57:38.854Z,13.43
2022-11-22T14:00:15.047Z,12.13
2022-11-22T14:02:47.102Z,9.57
2022-11-22T14:05:40.974Z,9.18
2022-11-22T14:08:36.000Z,12.00
2022-11-22T14:11:28.443Z,12.48
2022-11-22T14:14:05.469Z,10.03
2022-11-22T14:16:59.198Z,7.63
2022-11-22T14:19:26.163Z,8.63
2022-11-22T14:22:07.167Z,7.70
2022-11-22T14:24:40.338Z,9.23
2022-11-22T14:27:27.247Z,6.30
2022-11-22T14:30:04.919Z,7.03
2022-11-22T14:32:48.861Z,9.43
2022-11-22T14:35:27.981Z,6.78
2022-11-22T14:37:58.296Z,7.47
2022-11-22T14:40:38.024Z,8.30
2022-11-22T14:43:11.124Z,7.88
2022-11-22T14:45:38.095Z,7.63
2022-11-22T14:48:14.654Z,9.73
2022-11-22T14:50:45.506Z,9.38
2022-11-22T14:53:20.053Z,8.53
2022-11-22T14:55:49.039Z,7.45
2022-11-22T14:58:23.878Z,7.55
2022-11-22T15:01:23.145Z,8.20
2022-11-22T15:09:17.242Z,8.55
2022-11-22T15:09:19.923Z,9.77
2022-11-22T15:10:30.762Z,7.88
2022-11-22T15:13:27.067Z,7.70
2022-11-22T15:59:25.250Z,10.60
2022-11-22T16:01:55.105Z,11.05
2022-11-22T16:04:26.218Z,9.27
2022-11-22T16:06:53.815Z,11.13
2022-11-22T16:09:43.515Z,10.70
2022-11-22T16:12:49.625Z,11.35
2022-11-22T16:15:37.145Z,10.27
2022-11-22T16:18:10.127Z,14.03
2022-11-22T16:20:39.183Z,11.85
2022-11-22T16:23:09.005Z,10.65
2022-11-22T16:25:38.718Z,9.88
2022-11-22T16:28:24.284Z,10.55
2022-11-22T16:30:53.772Z,8.87
2022-11-22T16:33:20.918Z,11.18
2022-11-22T16:35:55.434Z,9.73
2022-11-22T16:38:23.461Z,11.43
2022-11-22T16:40:51.226Z,10.85
2022-11-22T16:43:20.537Z,10.93
2022-11-22T16:45:48.358Z,9.93
2022-11-22T16:48:35.846Z,10.95
2022-11-22T16:51:28.513Z,11.23
2022-11-22T16:53:59.280Z,13.48
2022-11-22T16:56:30.318Z,10.53
2022-11-22T16:58:57.761Z,8.38
2022-11-22T17:01:26.930Z,11.70
2022-11-22T17:03:56.165Z,11.13
2022-11-22T17:06:25.747Z,11.50
2022-11-22T17:08:54.978Z,13.50
2022-11-22T17:11:28.032Z,10.80
2022-11-22T17:13:55.226Z,10.88
2022-11-22T17:16:22.444Z,12.65
2022-11-22T17:18:49.590Z,11.13
2022-11-22T17:21:26.213Z,11.13
2022-11-22T17:23:58.524Z,12.80
2022-11-22T17:26:26.146Z,12.75
2022-11-22T17:28:53.439Z,11.18
2022-11-22T17:31:22.021Z,13.32
2022-11-22T17:33:53.714Z,10.37
2022-11-22T17:36:30.739Z,15.50
2022-11-22T17:38:59.732Z,12.02
2022-11-22T17:41:27.219Z,10.32
2022-11-22T17:43:54.511Z,10.57
2022-11-22T17:46:21.824Z,11.67
2022-11-22T17:48:53.214Z,9.82
2022-11-22T17:51:20.976Z,11.27
2022-11-22T17:53:48.836Z,10.98
2022-11-22T17:56:16.349Z,14.35
2022-11-22T17:58:43.549Z,11.53
2022-11-22T18:01:16.037Z,12.35
2022-11-22T18:03:43.858Z,11.88
2022-11-22T18:06:11.842Z,13.82
2022-11-22T18:08:45.250Z,13.48
2022-11-22T18:11:14.452Z,15.87
2022-11-22T18:13:41.938Z,13.45
2022-11-22T18:16:12.230Z,14.98
2022-11-22T18:21:29.381Z,13.13
2022-11-22T18:24:00.405Z,13.13
2022-11-22T18:26:43.423Z,14.55
2022-11-22T18:29:41.553Z,12.40
2022-11-22T18:31:59.847Z,12.52
2022-11-22T18:34:27.722Z,15.98
2022-11-22T18:37:00.331Z,14.23
2022-11-22T18:39:34.667Z,14.00
2022-11-22T18:42:03.249Z,15.07
2022-11-22T18:44:30.520Z,15.40
2022-11-22T18:46:58.518Z,12.02
2022-11-22T18:49:25.707Z,15.47
2022-11-22T18:51:52.978Z,12.45
2022-11-22T18:54:21.890Z,15.55
2022-11-22T18:56:50.424Z,12.70
2022-11-22T18:59:17.912Z,13.20
2022-11-22T19:01:45.112Z,12.77
2022-11-22T19:04:14.254Z,12.48
2022-11-22T19:06:41.999Z,15.05
2022-11-22T19:09:09.358Z,12.73
2022-11-22T19:11:36.823Z,12.85
2022-11-22T19:14:04.367Z,18.30
2022-11-22T19:16:31.585Z,15.07
2022-11-22T19:18:59.297Z,14.20
2022-11-22T19:21:27.929Z,12.85
2022-11-22T19:23:56.325Z,14.63
2022-11-22T19:26:25.455Z,13.97
2022-11-22T19:28:55.604Z,13.00
2022-11-22T19:31:25.510Z,15.48
2022-11-22T19:33:52.612Z,13.55
2022-11-22T19:36:25.278Z,12.93
2022-11-22T19:38:55.111Z,14.90
2022-11-22T19:41:23.549Z,13.20
2022-11-22T19:43:51.564Z,13.00
2022-11-22T19:46:21.311Z,14.02
2022-11-22T19:48:56.343Z,14.35
2022-11-22T19:51:24.532Z,12.53
2022-11-22T19:53:58.858Z,12.90
2022-11-22T19:56:30.238Z,14.60
2022-11-22T19:58:59.363Z,12.68
2022-11-22T20:01:29.187Z,12.13
2022-11-22T20:03:58.921Z,15.63
2022-11-22T20:06:26.462Z,14.85
2022-11-22T20:08:53.620Z,12.82
2022-11-22T20:11:21.057Z,13.77
2022-11-22T20:13:50.041Z,12.90
2022-11-22T20:16:21.108Z,12.10
2022-11-22T20:18:52.585Z,14.23
2022-11-22T20:21:22.272Z,12.98
2022-11-22T20:23:50.663Z,11.13
2022-11-22T20:26:18.210Z,14.02
2022-11-22T20:28:46.200Z,12.93
2022-11-22T20:31:18.422Z,14.60
2022-11-22T20:33:47.906Z,12.23
2022-11-22T20:36:20.635Z,12.85
2022-11-22T20:38:49.047Z,13.18
2022-11-22T20:41:18.120Z,13.87
2022-11-22T20:43:45.753Z,11.32
2022-11-22T20:46:14.837Z,10.07
2022-11-22T20:48:44.071Z,10.60
2022-11-22T20:51:13.285Z,11.40
2022-11-22T20:53:41.123Z,13.40
2022-11-22T20:56:08.666Z,12.27
2022-11-22T20:58:35.861Z,11.10
2022-11-22T21:01:07.570Z,12.05
2022-11-22T21:03:35.061Z,10.65
2022-11-22T21:06:02.856Z,8.13
2022-11-22T21:08:30.467Z,13.20
2022-11-22T21:11:09.237Z,11.65
2022-11-22T21:13:36.281Z,9.40
2022-11-22T21:16:21.843Z,12.13
2022-11-22T21:18:51.516Z,8.67
2022-11-22T21:21:23.043Z,13.30
2022-11-22T21:23:52.293Z,11.07
2022-11-22T21:26:19.934Z,11.10
2022-11-22T21:28:47.063Z,10.45
2022-11-22T21:31:14.224Z,11.03
2022-11-22T21:33:42.685Z,10.32
2022-11-22T21:36:09.988Z,13.05
2022-11-22T21:38:40.100Z,9.77
2022-11-22T21:41:38.092Z,8.70
2022-11-22T21:43:57.093Z,9.30
2022-11-22T21:46:28.028Z,8.82
2022-11-22T21:48:55.844Z,9.30
2022-11-22T21:51:25.735Z,8.82
2022-11-22T21:53:56.672Z,10.18
2022-11-22T21:56:23.831Z,8.40
2022-11-22T21:58:50.986Z,8.82
2022-11-22T22:01:18.151Z,9.82
2022-11-22T22:03:45.248Z,11.43
2022-11-22T22:06:12.468Z,9.23
2022-11-22T22:08:40.893Z,11.37
2022-11-22T22:11:08.524Z,10.20
2022-11-22T22:13:36.104Z,10.07
2022-11-22T22:16:06.841Z,12.13
2022-11-22T22:18:36.469Z,8.35
2022-11-22T22:21:06.325Z,8.73
2022-11-22T22:23:34.540Z,8.70
2022-11-22T22:26:03.412Z,10.57
2022-11-22T22:28:32.034Z,10.57
2022-11-22T22:31:06.439Z,9.40
2022-11-22T22:33:34.772Z,7.50
2022-11-22T22:36:02.665Z,12.82
2022-11-22T22:38:30.845Z,11.73
2022-11-22T22:41:01.467Z,11.18
2022-11-22T22:43:38.216Z,10.85
2022-11-22T22:46:07.407Z,10.13
2022-11-22T22:48:34.903Z,11.73
2022-11-22T22:51:10.923Z,13.45
2022-11-22T22:53:38.178Z,8.63
2022-11-22T22:56:07.808Z,11.07
2022-11-22T22:58:35.157Z,12.67
2022-11-22T23:01:13.500Z,9.48
2022-11-22T23:03:40.845Z,8.02
2022-11-22T23:06:10.168Z,9.65
2022-11-22T23:08:38.429Z,9.20
2022-11-22T23:11:07.425Z,10.23
2022-11-22T23:13:36.016Z,9.40
2022-11-22T23:16:04.900Z,11.95
2022-11-22T23:18:35.204Z,10.00
2022-11-22T23:21:03.606Z,11.65
2022-11-22T23:23:31.048Z,10.43
2022-11-22T23:26:02.877Z,9.63
2022-11-22T23:28:30.337Z,10.15
2022-11-22T23:31:14.216Z,9.45
2022-11-22T23:33:42.876Z,10.65
2022-11-22T23:36:12.685Z,8.80
2022-11-22T23:38:40.326Z,10.60
2022-11-22T23:41:09.230Z,11.05
2022-11-22T23:43:36.259Z,9.05
2022-11-22T23:46:03.422Z,13.98
2022-11-22T23:48:30.554Z,12.00
2022-11-22T23:51:03.674Z,8.93
2022-11-22T23:53:30.729Z,10.27
2022-11-22T23:56:15.899Z,9.02
2022-11-22T23:58:45.130Z,9.32
